Terminal Aerodrome Forecast
Issued by NWS Cleveland, OH

Home | Current Version | Previous Version | Graphics & Text | Print | Product List | Glossary On
Versions: 1 2 3 4 5 6 7 8 9 10 11 12 13 14 15 16 17 18 19 20
188
FTUS41 KCLE 081130
TAFMFD
TAF
KMFD 081130Z 0812/0912 25012G20KT P6SM OVC018
     FM081800 26015G25KT P6SM OVC030
     FM090100 26012G20KT 6SM -SHSN OVC025=

USA.gov is the U.S. government's official web portal to all federal, state and local government web resources and services.